Time;durP1;ratioP1;P1;durP2;ratioP2;P2;SDS_P1;SDS_P2;PMS_P1;PMS_P2;Temp;Humidity;BMP_temperature;BMP_pressure;BME280_temperature;BME280_humidity;BME280_pressure;Samples;Min_cycle;Max_cycle;Signal;HPM_P1;HPM_P2
2020/12/23 00:00:38;;;;;;;5.68;5.15;;;;;;;;;;4997869;28;20177;-58
2020/12/23 00:03:03;;;;;;;5.72;5.32;;;;;;;;;;4995163;28;20209;-58
2020/12/23 00:05:29;;;;;;;7.53;5.97;;;;;;;;;;4988995;28;20187;-58
2020/12/23 00:07:54;;;;;;;6.90;6.30;;;;;;;;;;4997823;28;20188;-58
2020/12/23 00:10:19;;;;;;;6.43;5.90;;;;;;;;;;4999191;28;20191;-58
2020/12/23 00:12:44;;;;;;;6.05;5.57;;;;;;;;;;5000958;28;20247;-59
2020/12/23 00:15:09;;;;;;;7.28;6.68;;;;;;;;;;5020991;28;20867;-58
2020/12/23 00:17:35;;;;;;;6.93;6.43;;;;;;;;;;5003654;28;20195;-58
2020/12/23 00:20:00;;;;;;;7.93;7.23;;;;;;;;;;4997524;28;20182;-58
2020/12/23 00:22:25;;;;;;;8.13;7.33;;;;;;;;;;5008433;28;20237;-61
2020/12/23 00:24:50;;;;;;;7.60;6.97;;;;;;;;;;5000875;28;20271;-58
2020/12/23 00:27:18;;;;;;;7.40;6.63;;;;;;;;;;4999916;28;20218;-57
2020/12/23 00:29:43;;;;;;;8.97;8.17;;;;;;;;;;5003021;28;20241;-57
2020/12/23 00:32:08;;;;;;;7.35;6.60;;;;;;;;;;5000972;28;20610;-58
2020/12/23 00:34:34;;;;;;;7.30;6.70;;;;;;;;;;5004285;28;20187;-58
2020/12/23 00:36:59;;;;;;;7.70;6.93;;;;;;;;;;5004809;28;20204;-58
2020/12/23 00:39:25;;;;;;;8.77;7.97;;;;;;;;;;5001162;28;20249;-58
2020/12/23 00:41:50;;;;;;;8.43;7.73;;;;;;;;;;4999623;28;20179;-59
2020/12/23 00:44:16;;;;;;;8.80;7.90;;;;;;;;;;4998700;28;20210;-59
2020/12/23 00:46:42;;;;;;;8.20;7.50;;;;;;;;;;4999494;28;20200;-58
2020/12/23 00:49:07;;;;;;;8.90;7.97;;;;;;;;;;5010138;28;20246;-58
2020/12/23 00:51:33;;;;;;;8.90;8.13;;;;;;;;;;5003615;28;20203;-59
2020/12/23 00:53:58;;;;;;;8.30;7.60;;;;;;;;;;5005081;28;20195;-58
2020/12/23 00:56:23;;;;;;;8.40;7.50;;;;;;;;;;5014992;28;20180;-59
2020/12/23 00:58:48;;;;;;;8.70;7.90;;;;;;;;;;5003661;28;20175;-59
2020/12/23 01:01:14;;;;;;;9.40;8.50;;;;;;;;;;5005776;28;20171;-59
2020/12/23 01:03:39;;;;;;;8.87;8.07;;;;;;;;;;5000810;28;20181;-58
2020/12/23 01:06:07;;;;;;;8.60;7.90;;;;;;;;;;4998892;28;20183;-58
2020/12/23 01:08:32;;;;;;;8.93;8.13;;;;;;;;;;4996629;28;20183;-58
2020/12/23 01:10:57;;;;;;;8.90;8.10;;;;;;;;;;5001122;28;20609;-59
2020/12/23 01:13:22;;;;;;;8.63;7.85;;;;;;;;;;5000678;28;20567;-58
2020/12/23 01:15:47;;;;;;;8.57;7.88;;;;;;;;;;4999302;28;20615;-59
2020/12/23 01:18:13;;;;;;;8.45;7.65;;;;;;;;;;5003591;28;20205;-58
2020/12/23 01:20:38;;;;;;;9.57;8.70;;;;;;;;;;4998516;28;20271;-59
2020/12/23 01:23:03;;;;;;;8.43;7.63;;;;;;;;;;4997395;28;20709;-58
2020/12/23 01:25:29;;;;;;;9.25;8.35;;;;;;;;;;5003293;28;20240;-58
2020/12/23 01:27:54;;;;;;;9.50;8.67;;;;;;;;;;4999106;28;20258;-57
2020/12/23 01:30:20;;;;;;;9.40;8.40;;;;;;;;;;5001572;28;20708;-57
2020/12/23 01:32:45;;;;;;;9.47;8.57;;;;;;;;;;4994916;28;20194;-57
2020/12/23 01:35:10;;;;;;;10.13;9.07;;;;;;;;;;5000455;28;20263;-58
2020/12/23 01:37:35;;;;;;;11.47;10.37;;;;;;;;;;4999071;28;20200;-57
2020/12/23 01:40:01;;;;;;;11.43;10.30;;;;;;;;;;5003697;28;20226;-58
2020/12/23 01:42:26;;;;;;;10.40;9.33;;;;;;;;;;4994856;28;20654;-58
2020/12/23 01:44:51;;;;;;;11.25;10.13;;;;;;;;;;5003576;28;20186;-58
2020/12/23 01:47:20;;;;;;;11.00;9.93;;;;;;;;;;5000818;28;20254;-58
2020/12/23 01:49:46;;;;;;;11.27;10.20;;;;;;;;;;5000824;28;20171;-58
2020/12/23 01:52:11;;;;;;;10.63;9.70;;;;;;;;;;4997721;28;21180;-58
2020/12/23 01:54:36;;;;;;;11.60;10.50;;;;;;;;;;4997937;28;20187;-58
2020/12/23 01:57:01;;;;;;;11.93;10.83;;;;;;;;;;5003673;28;20284;-57
2020/12/23 01:59:26;;;;;;;12.43;10.60;;;;;;;;;;5004769;28;20175;-57
2020/12/23 02:02:01;;;;;;;11.17;10.03;;;;;;;;;;4994691;28;20210;-58
2020/12/23 02:04:32;;;;;;;11.70;10.60;;;;;;;;;;4995645;28;20579;-57
2020/12/23 02:06:57;;;;;;;11.43;10.23;;;;;;;;;;5000194;28;21182;-58
2020/12/23 02:09:23;;;;;;;12.07;10.97;;;;;;;;;;5003233;28;20633;-57
2020/12/23 02:11:48;;;;;;;10.97;9.97;;;;;;;;;;4994130;28;20231;-56
2020/12/23 02:14:13;;;;;;;12.23;11.13;;;;;;;;;;4993933;28;20253;-57
2020/12/23 02:16:38;;;;;;;11.75;10.60;;;;;;;;;;4993463;28;20202;-56
2020/12/23 02:19:03;;;;;;;15.48;13.88;;;;;;;;;;4998325;28;20182;-56
2020/12/23 02:21:29;;;;;;;15.55;13.95;;;;;;;;;;5001364;28;20209;-57
2020/12/23 02:23:54;;;;;;;14.30;12.07;;;;;;;;;;4996020;28;20196;-56
2020/12/23 02:26:19;;;;;;;13.10;11.90;;;;;;;;;;4993199;28;20628;-56
2020/12/23 02:28:44;;;;;;;14.25;12.85;;;;;;;;;;5015270;28;20210;-56
2020/12/23 02:31:10;;;;;;;14.00;12.60;;;;;;;;;;5003420;28;20167;-56
2020/12/23 02:33:35;;;;;;;16.10;14.48;;;;;;;;;;4997448;28;20179;-56
2020/12/23 02:36:00;;;;;;;16.50;13.82;;;;;;;;;;4994646;28;20593;-56
2020/12/23 02:38:25;;;;;;;14.90;13.40;;;;;;;;;;5013597;28;20235;-56
2020/12/23 02:40:50;;;;;;;13.73;12.30;;;;;;;;;;4999969;28;20176;-56
2020/12/23 02:43:15;;;;;;;13.95;12.65;;;;;;;;;;4991392;28;20203;-56
2020/12/23 02:45:41;;;;;;;15.00;13.40;;;;;;;;;;4996008;28;20178;-56
2020/12/23 02:48:06;;;;;;;14.87;13.27;;;;;;;;;;5006375;28;20182;-56
2020/12/23 02:50:31;;;;;;;15.50;12.73;;;;;;;;;;4999041;28;20175;-56
2020/12/23 02:52:56;;;;;;;15.52;13.10;;;;;;;;;;4998608;28;20178;-56
2020/12/23 02:55:22;;;;;;;14.25;12.38;;;;;;;;;;4994844;28;20191;-56
2020/12/23 02:57:47;;;;;;;15.45;13.90;;;;;;;;;;4998530;28;20681;-56
2020/12/23 03:00:12;;;;;;;16.03;14.07;;;;;;;;;;4998854;28;20179;-56
2020/12/23 03:02:37;;;;;;;14.33;12.93;;;;;;;;;;4992335;28;20176;-57
2020/12/23 03:05:02;;;;;;;15.18;13.57;;;;;;;;;;5004188;28;20544;-57
2020/12/23 03:07:28;;;;;;;14.97;13.47;;;;;;;;;;5000459;28;20655;-57
2020/12/23 03:09:53;;;;;;;15.93;14.30;;;;;;;;;;5002279;28;20671;-56
2020/12/23 03:12:18;;;;;;;15.87;14.03;;;;;;;;;;4994428;28;20718;-57
2020/12/23 03:14:44;;;;;;;15.27;13.60;;;;;;;;;;4995026;28;20238;-57
2020/12/23 03:17:09;;;;;;;15.55;13.95;;;;;;;;;;4996136;28;20232;-57
2020/12/23 03:19:34;;;;;;;18.02;16.00;;;;;;;;;;4999706;28;20259;-57
2020/12/23 03:21:59;;;;;;;21.13;14.97;;;;;;;;;;4996776;28;20570;-57
2020/12/23 03:24:24;;;;;;;16.20;14.00;;;;;;;;;;4993885;28;20630;-57
2020/12/23 03:26:49;;;;;;;15.43;13.82;;;;;;;;;;4992985;28;20302;-56
2020/12/23 03:29:15;;;;;;;15.02;13.48;;;;;;;;;;4998205;28;20186;-57
2020/12/23 03:31:40;;;;;;;15.50;13.55;;;;;;;;;;4992980;28;20248;-57
2020/12/23 03:34:05;;;;;;;14.50;13.10;;;;;;;;;;4998329;28;20191;-57
2020/12/23 03:36:30;;;;;;;17.17;14.00;;;;;;;;;;5008902;28;20169;-57
2020/12/23 03:38:55;;;;;;;16.67;14.88;;;;;;;;;;4998525;28;21302;-56
2020/12/23 03:41:21;;;;;;;18.58;15.30;;;;;;;;;;5009434;28;20270;-57
2020/12/23 03:43:46;;;;;;;16.27;14.53;;;;;;;;;;5001307;28;20172;-56
2020/12/23 03:46:11;;;;;;;16.17;13.55;;;;;;;;;;5001041;28;20638;-57
2020/12/23 03:48:36;;;;;;;15.27;13.13;;;;;;;;;;4997639;28;20187;-57
2020/12/23 03:51:01;;;;;;;16.67;13.90;;;;;;;;;;5002841;28;20587;-57
2020/12/23 03:53:26;;;;;;;18.70;15.63;;;;;;;;;;5000872;28;20705;-56
2020/12/23 03:55:52;;;;;;;17.38;15.07;;;;;;;;;;5005907;28;20179;-57
2020/12/23 03:58:17;;;;;;;19.23;16.17;;;;;;;;;;4998178;28;20308;-57
2020/12/23 04:00:42;;;;;;;16.63;14.43;;;;;;;;;;5002675;28;20171;-57
2020/12/23 04:03:07;;;;;;;19.50;15.70;;;;;;;;;;4997664;28;20178;-56
2020/12/23 04:05:33;;;;;;;15.85;14.15;;;;;;;;;;4996578;28;20658;-56
2020/12/23 04:07:58;;;;;;;18.20;15.07;;;;;;;;;;5002027;28;20189;-57
2020/12/23 04:10:23;;;;;;;17.08;14.98;;;;;;;;;;5012078;28;20177;-57
2020/12/23 04:12:48;;;;;;;16.53;14.73;;;;;;;;;;4999995;28;20539;-58
2020/12/23 04:15:13;;;;;;;29.47;20.30;;;;;;;;;;5000115;28;20186;-57
2020/12/23 04:17:38;;;;;;;25.77;19.30;;;;;;;;;;5014404;28;20212;-57
2020/12/23 04:20:05;;;;;;;20.00;17.17;;;;;;;;;;4999788;28;20183;-57
2020/12/23 04:22:30;;;;;;;21.50;17.53;;;;;;;;;;4996258;28;20246;-57
2020/12/23 04:24:59;;;;;;;19.77;15.97;;;;;;;;;;5003485;28;20716;-57
2020/12/23 04:27:24;;;;;;;25.60;17.70;;;;;;;;;;5007964;28;20228;-57
2020/12/23 04:29:49;;;;;;;23.27;17.93;;;;;;;;;;5005653;28;20688;-57
2020/12/23 04:32:15;;;;;;;21.87;17.70;;;;;;;;;;5000187;28;20171;-57
2020/12/23 04:34:40;;;;;;;21.07;17.03;;;;;;;;;;4994570;28;20178;-57
2020/12/23 04:37:05;;;;;;;22.13;18.23;;;;;;;;;;5006566;28;20680;-56
2020/12/23 04:39:30;;;;;;;19.08;16.42;;;;;;;;;;5015626;28;20174;-56
2020/12/23 04:41:55;;;;;;;21.33;17.30;;;;;;;;;;4997741;28;20588;-56
2020/12/23 04:44:21;;;;;;;26.83;18.77;;;;;;;;;;4996560;28;20178;-56
2020/12/23 04:46:46;;;;;;;20.67;16.90;;;;;;;;;;4996259;28;20181;-56
2020/12/23 04:49:11;;;;;;;24.33;18.50;;;;;;;;;;5003869;28;20825;-57
2020/12/23 04:51:37;;;;;;;20.90;16.70;;;;;;;;;;4998779;28;20216;-57
2020/12/23 04:54:04;;;;;;;19.03;15.50;;;;;;;;;;4998201;28;20544;-57
2020/12/23 04:56:30;;;;;;;29.33;18.80;;;;;;;;;;5000003;28;21357;-57
2020/12/23 04:58:55;;;;;;;20.70;16.57;;;;;;;;;;4993727;28;21380;-57
2020/12/23 05:01:20;;;;;;;29.37;18.83;;;;;;;;;;4997170;28;20597;-57
2020/12/23 05:03:46;;;;;;;32.83;22.20;;;;;;;;;;5012157;28;20582;-57
2020/12/23 05:06:11;;;;;;;24.63;17.48;;;;;;;;;;4998586;28;20170;-56
2020/12/23 05:08:36;;;;;;;31.27;21.20;;;;;;;;;;5001317;28;20178;-57
2020/12/23 05:11:08;;;;;;;27.67;19.50;;;;;;;;;;5002262;28;20182;-56
2020/12/23 05:13:33;;;;;;;17.20;15.40;;;;;;;;;;5001367;28;20603;-57
2020/12/23 05:15:59;;;;;;;17.07;14.80;;;;;;;;;;4997453;28;20693;-56
2020/12/23 05:18:34;;;;;;;16.67;14.63;;;;;;;;;;5007722;28;20203;-55
2020/12/23 05:21:00;;;;;;;23.87;17.07;;;;;;;;;;5007307;28;20174;-56
2020/12/23 05:23:27;;;;;;;17.83;15.70;;;;;;;;;;5009115;28;20689;-56
2020/12/23 05:25:54;;;;;;;17.10;15.37;;;;;;;;;;5007329;28;20624;-57
2020/12/23 05:28:19;;;;;;;16.37;14.53;;;;;;;;;;5004650;28;20674;-56
2020/12/23 05:30:44;;;;;;;18.45;14.88;;;;;;;;;;5003848;28;20612;-57
2020/12/23 05:33:12;;;;;;;17.20;15.37;;;;;;;;;;4997874;28;20193;-56
2020/12/23 05:35:37;;;;;;;19.00;15.83;;;;;;;;;;5015099;28;20171;-56
2020/12/23 05:38:03;;;;;;;16.40;14.43;;;;;;;;;;5010547;28;20749;-56
2020/12/23 05:40:29;;;;;;;19.43;15.67;;;;;;;;;;5002910;28;20180;-56
2020/12/23 05:42:55;;;;;;;16.73;14.93;;;;;;;;;;5015286;28;20185;-56
2020/12/23 05:45:21;;;;;;;18.90;15.83;;;;;;;;;;5007840;28;20458;-56
2020/12/23 05:47:51;;;;;;;17.73;14.90;;;;;;;;;;4994305;28;20178;-57
2020/12/23 05:50:16;;;;;;;17.80;15.90;;;;;;;;;;5004053;28;20688;-56
2020/12/23 05:52:41;;;;;;;17.65;15.10;;;;;;;;;;5002721;28;20684;-57
2020/12/23 05:55:13;;;;;;;18.93;15.47;;;;;;;;;;4993573;28;20610;-56
2020/12/23 05:57:38;;;;;;;15.87;14.10;;;;;;;;;;5002071;28;20611;-56
2020/12/23 06:00:03;;;;;;;16.30;14.60;;;;;;;;;;4994364;28;21021;-56
2020/12/23 06:02:32;;;;;;;19.40;15.90;;;;;;;;;;5011110;28;20597;-56
2020/12/23 06:05:01;;;;;;;17.30;15.47;;;;;;;;;;5004019;28;20206;-56
2020/12/23 06:07:30;;;;;;;17.87;14.77;;;;;;;;;;5001567;28;20698;-56
2020/12/23 06:09:57;;;;;;;19.90;17.00;;;;;;;;;;4996109;28;20657;-56
2020/12/23 06:12:22;;;;;;;17.23;14.70;;;;;;;;;;5000653;28;21249;-56
2020/12/23 06:14:58;;;;;;;18.37;15.10;;;;;;;;;;4991200;28;20597;-57
2020/12/23 06:17:24;;;;;;;19.53;15.33;;;;;;;;;;4993080;28;20205;-56
2020/12/23 06:19:55;;;;;;;16.73;14.70;;;;;;;;;;4999734;28;20604;-55
2020/12/23 06:22:22;;;;;;;17.03;15.17;;;;;;;;;;5002992;28;20596;-55
2020/12/23 06:24:47;;;;;;;16.30;14.30;;;;;;;;;;5002620;28;20680;-56
2020/12/23 06:27:12;;;;;;;19.63;15.30;;;;;;;;;;4995484;28;21195;-56
2020/12/23 06:29:42;;;;;;;15.80;13.90;;;;;;;;;;5004797;28;20690;-55
2020/12/23 06:32:08;;;;;;;17.73;15.73;;;;;;;;;;5006267;28;20180;-55
2020/12/23 06:34:34;;;;;;;18.50;15.63;;;;;;;;;;4994974;28;20592;-56
2020/12/23 06:36:59;;;;;;;18.17;15.70;;;;;;;;;;5000854;28;20632;-56
2020/12/23 06:39:26;;;;;;;16.88;15.10;;;;;;;;;;4992517;28;21203;-56
2020/12/23 06:41:54;;;;;;;18.40;14.17;;;;;;;;;;4991931;28;20174;-56
2020/12/23 06:44:20;;;;;;;17.47;15.43;;;;;;;;;;4990288;28;20612;-56
2020/12/23 06:47:00;;;;;;;18.83;15.47;;;;;;;;;;4990426;28;20599;-56
2020/12/23 06:49:34;;;;;;;19.10;15.37;;;;;;;;;;4997958;28;20189;-57
2020/12/23 06:52:00;;;;;;;18.27;15.57;;;;;;;;;;5000245;28;20590;-57
2020/12/23 06:54:45;;;;;;;16.70;14.87;;;;;;;;;;5006650;28;20825;-56
2020/12/23 06:57:30;;;;;;;17.17;14.97;;;;;;;;;;4992812;28;20650;-56
2020/12/23 06:59:55;;;;;;;19.90;16.50;;;;;;;;;;5005769;28;20616;-56
2020/12/23 07:02:21;;;;;;;18.33;16.13;;;;;;;;;;4998546;28;20594;-56
2020/12/23 07:04:49;;;;;;;18.25;15.45;;;;;;;;;;4995661;28;20182;-56
2020/12/23 07:07:33;;;;;;;18.57;15.87;;;;;;;;;;4993645;28;20272;-56
2020/12/23 07:10:24;;;;;;;18.73;14.87;;;;;;;;;;4990360;28;20604;-56
2020/12/23 07:12:59;;;;;;;21.30;16.37;;;;;;;;;;4989464;28;20608;-55
2020/12/23 07:15:25;;;;;;;20.13;16.07;;;;;;;;;;4994655;28;21257;-55
2020/12/23 07:17:50;;;;;;;19.37;16.20;;;;;;;;;;4998395;28;21207;-56
2020/12/23 07:20:16;;;;;;;18.93;16.90;;;;;;;;;;4999059;28;20611;-55
2020/12/23 07:22:46;;;;;;;19.60;17.43;;;;;;;;;;4997796;28;20257;-56
2020/12/23 07:25:17;;;;;;;24.90;21.77;;;;;;;;;;4994139;28;20218;-55
2020/12/23 07:27:44;;;;;;;28.40;21.73;;;;;;;;;;5002659;28;20652;-56
2020/12/23 07:30:09;;;;;;;21.33;18.27;;;;;;;;;;4994706;28;21049;-56
2020/12/23 07:32:35;;;;;;;18.77;16.80;;;;;;;;;;5001048;28;20608;-56
2020/12/23 07:35:00;;;;;;;17.10;15.40;;;;;;;;;;5000788;28;20188;-56
2020/12/23 07:37:38;;;;;;;17.37;15.57;;;;;;;;;;4997079;28;20269;-55
2020/12/23 07:40:12;;;;;;;18.07;15.77;;;;;;;;;;4994459;28;20175;-55
2020/12/23 07:42:37;;;;;;;15.83;14.27;;;;;;;;;;5002990;28;20621;-55
2020/12/23 07:45:02;;;;;;;18.42;16.50;;;;;;;;;;4995706;28;20947;-55
2020/12/23 07:47:27;;;;;;;18.53;15.50;;;;;;;;;;4997180;28;20193;-56
2020/12/23 07:50:04;;;;;;;17.83;16.00;;;;;;;;;;4997118;28;20178;-56
2020/12/23 07:52:29;;;;;;;17.03;15.30;;;;;;;;;;4988996;28;20217;-56
2020/12/23 07:54:54;;;;;;;17.27;15.43;;;;;;;;;;5000721;28;20643;-58
2020/12/23 07:57:26;;;;;;;17.35;15.52;;;;;;;;;;4992412;28;20212;-58
2020/12/23 07:59:51;;;;;;;15.60;13.93;;;;;;;;;;4995512;28;20183;-59
2020/12/23 08:02:16;;;;;;;15.45;14.05;;;;;;;;;;5004750;28;20600;-59
2020/12/23 08:04:41;;;;;;;15.30;13.75;;;;;;;;;;5002748;28;20181;-58
2020/12/23 08:07:06;;;;;;;15.70;14.20;;;;;;;;;;4993626;28;20189;-59
2020/12/23 08:09:32;;;;;;;14.70;13.20;;;;;;;;;;5003414;28;20592;-59
2020/12/23 08:11:58;;;;;;;14.83;13.43;;;;;;;;;;4999355;28;20213;-57
2020/12/23 08:14:23;;;;;;;15.20;13.70;;;;;;;;;;4997593;28;20175;-56
2020/12/23 08:16:56;;;;;;;14.50;13.20;;;;;;;;;;4995073;28;21242;-57
2020/12/23 08:19:31;;;;;;;14.50;13.00;;;;;;;;;;4997170;28;20201;-57
2020/12/23 08:22:18;;;;;;;15.30;13.67;;;;;;;;;;4997156;28;20641;-59
2020/12/23 08:24:43;;;;;;;15.33;13.83;;;;;;;;;;5002179;28;20634;-57
2020/12/23 08:27:09;;;;;;;14.27;12.88;;;;;;;;;;5003491;28;20644;-57
2020/12/23 08:29:34;;;;;;;16.40;14.63;;;;;;;;;;5005601;28;20260;-56
2020/12/23 08:32:00;;;;;;;13.73;12.53;;;;;;;;;;5007194;28;20188;-57
2020/12/23 08:34:26;;;;;;;14.53;13.23;;;;;;;;;;5005856;28;20178;-57
2020/12/23 08:36:52;;;;;;;15.00;13.57;;;;;;;;;;4998170;28;20703;-57
2020/12/23 08:39:24;;;;;;;14.40;13.17;;;;;;;;;;4993504;28;21247;-57
2020/12/23 08:41:49;;;;;;;16.00;14.50;;;;;;;;;;5006314;28;20215;-57
2020/12/23 08:44:19;;;;;;;14.37;13.00;;;;;;;;;;5004092;28;20643;-57
2020/12/23 08:46:45;;;;;;;17.20;15.60;;;;;;;;;;5000636;28;20652;-57
2020/12/23 08:49:10;;;;;;;15.30;13.80;;;;;;;;;;5000905;28;21177;-57
2020/12/23 08:51:35;;;;;;;13.83;12.60;;;;;;;;;;4993615;28;20605;-57
2020/12/23 08:54:10;;;;;;;14.60;13.30;;;;;;;;;;5003623;28;20206;-56
2020/12/23 08:56:36;;;;;;;14.00;12.60;;;;;;;;;;5005695;28;20183;-57
2020/12/23 08:59:05;;;;;;;15.40;13.50;;;;;;;;;;5002874;28;20610;-57
2020/12/23 09:01:31;;;;;;;14.13;12.93;;;;;;;;;;5004223;28;20178;-57
2020/12/23 09:04:09;;;;;;;15.90;13.10;;;;;;;;;;4995046;28;21177;-57
2020/12/23 09:06:37;;;;;;;14.90;13.40;;;;;;;;;;4991563;28;20179;-57
2020/12/23 09:09:13;;;;;;;14.37;13.07;;;;;;;;;;5002545;28;20604;-56
2020/12/23 09:11:47;;;;;;;16.73;15.13;;;;;;;;;;5004130;28;20600;-55
2020/12/23 09:14:19;;;;;;;14.53;13.13;;;;;;;;;;5004941;28;21170;-56
2020/12/23 09:16:57;;;;;;;13.70;12.30;;;;;;;;;;4997938;28;20599;-57
2020/12/23 09:19:45;;;;;;;15.30;13.90;;;;;;;;;;5000842;28;21211;-57
2020/12/23 09:22:11;;;;;;;14.00;12.63;;;;;;;;;;4999366;28;20610;-57
2020/12/23 09:24:36;;;;;;;13.70;12.50;;;;;;;;;;4998889;28;20621;-56
2020/12/23 09:27:15;;;;;;;13.37;12.20;;;;;;;;;;5004448;28;20644;-57
2020/12/23 09:29:41;;;;;;;16.23;14.63;;;;;;;;;;5000899;28;20381;-57
2020/12/23 09:32:06;;;;;;;14.93;13.63;;;;;;;;;;5006944;28;20601;-57
2020/12/23 09:34:32;;;;;;;13.70;12.50;;;;;;;;;;5003306;28;20675;-57
2020/12/23 09:36:57;;;;;;;13.65;12.43;;;;;;;;;;4996766;28;20195;-57
2020/12/23 09:39:22;;;;;;;12.70;11.60;;;;;;;;;;5020113;28;20176;-57
2020/12/23 09:42:00;;;;;;;13.97;12.57;;;;;;;;;;4991895;28;20207;-57
2020/12/23 09:44:25;;;;;;;12.13;11.13;;;;;;;;;;4993415;28;20191;-57
2020/12/23 09:46:51;;;;;;;13.13;12.00;;;;;;;;;;4990387;28;20592;-56
2020/12/23 09:49:16;;;;;;;13.15;12.02;;;;;;;;;;4992281;28;20171;-57
2020/12/23 09:51:45;;;;;;;13.30;12.02;;;;;;;;;;5002530;28;20544;-58
2020/12/23 09:54:10;;;;;;;12.30;11.20;;;;;;;;;;4991387;28;20175;-57
2020/12/23 09:56:35;;;;;;;14.20;12.83;;;;;;;;;;5003337;28;20796;-56
2020/12/23 09:59:00;;;;;;;13.07;11.93;;;;;;;;;;5011283;28;20806;-56
2020/12/23 10:01:25;;;;;;;14.23;12.90;;;;;;;;;;5004345;28;20185;-57
2020/12/23 10:03:50;;;;;;;13.52;12.23;;;;;;;;;;4992107;28;20173;-56
2020/12/23 10:06:15;;;;;;;13.52;12.25;;;;;;;;;;4995078;28;20184;-56
2020/12/23 10:08:41;;;;;;;12.55;11.40;;;;;;;;;;4991566;28;20222;-56
2020/12/23 10:11:09;;;;;;;12.85;11.73;;;;;;;;;;5008576;28;20211;-57
2020/12/23 10:13:34;;;;;;;13.10;11.90;;;;;;;;;;5002808;28;20659;-57
2020/12/23 10:16:00;;;;;;;12.10;11.18;;;;;;;;;;5005681;28;21176;-56
2020/12/23 10:18:25;;;;;;;12.15;11.13;;;;;;;;;;5010330;28;20286;-56
2020/12/23 10:20:50;;;;;;;13.75;12.50;;;;;;;;;;5009763;28;20173;-56
2020/12/23 10:23:15;;;;;;;12.85;11.77;;;;;;;;;;5008516;28;20177;-56
2020/12/23 10:25:41;;;;;;;13.83;12.43;;;;;;;;;;5001647;28;20656;-57
2020/12/23 10:28:06;;;;;;;14.90;13.35;;;;;;;;;;5008904;28;20189;-56
2020/12/23 10:30:31;;;;;;;14.68;13.25;;;;;;;;;;5003470;28;20174;-57
2020/12/23 10:32:56;;;;;;;15.30;13.90;;;;;;;;;;5003064;28;20205;-57
2020/12/23 10:35:21;;;;;;;17.27;15.65;;;;;;;;;;4991118;28;20631;-56
2020/12/23 10:37:46;;;;;;;16.02;14.52;;;;;;;;;;4989878;28;20199;-56
2020/12/23 10:40:12;;;;;;;16.40;14.70;;;;;;;;;;4994602;28;20192;-56
2020/12/23 10:42:37;;;;;;;16.23;14.73;;;;;;;;;;5004204;28;20176;-56
2020/12/23 10:45:03;;;;;;;16.13;14.70;;;;;;;;;;4991437;28;20180;-56
2020/12/23 10:47:28;;;;;;;15.70;14.30;;;;;;;;;;4997802;28;20697;-57
2020/12/23 10:49:53;;;;;;;16.10;14.47;;;;;;;;;;5002517;28;20183;-57
2020/12/23 10:52:19;;;;;;;15.57;14.10;;;;;;;;;;4997832;28;20209;-56
2020/12/23 10:54:45;;;;;;;15.30;13.90;;;;;;;;;;4998784;28;20544;-57
2020/12/23 10:57:13;;;;;;;13.48;12.27;;;;;;;;;;4998859;28;20984;-57
2020/12/23 10:59:38;;;;;;;14.30;13.00;;;;;;;;;;5008192;28;20328;-57
2020/12/23 11:02:03;;;;;;;14.43;13.10;;;;;;;;;;4994366;28;20624;-56
2020/12/23 11:04:28;;;;;;;12.93;11.82;;;;;;;;;;4994825;28;20225;-56
2020/12/23 11:06:53;;;;;;;12.82;11.82;;;;;;;;;;4998786;28;20532;-57
2020/12/23 11:09:19;;;;;;;13.93;12.63;;;;;;;;;;4997947;28;20265;-57
2020/12/23 11:11:54;;;;;;;14.53;13.17;;;;;;;;;;5001641;28;20631;-57
2020/12/23 11:14:20;;;;;;;14.77;13.37;;;;;;;;;;4996823;28;20238;-57
2020/12/23 11:16:46;;;;;;;14.50;13.10;;;;;;;;;;5006015;28;20597;-57
2020/12/23 11:19:11;;;;;;;13.47;12.30;;;;;;;;;;5005121;28;20185;-57
2020/12/23 11:21:36;;;;;;;14.00;12.70;;;;;;;;;;5005106;28;20595;-56
2020/12/23 11:24:01;;;;;;;12.85;11.82;;;;;;;;;;5003565;28;20280;-57
2020/12/23 11:26:27;;;;;;;13.35;12.15;;;;;;;;;;4997763;28;20217;-57
2020/12/23 11:28:52;;;;;;;13.17;11.93;;;;;;;;;;4991585;28;20523;-57
2020/12/23 11:31:17;;;;;;;13.77;12.47;;;;;;;;;;5004198;28;20180;-57
2020/12/23 11:33:42;;;;;;;13.73;12.63;;;;;;;;;;5005013;28;20226;-58
2020/12/23 11:36:07;;;;;;;14.20;12.80;;;;;;;;;;5003587;28;20643;-57
2020/12/23 11:38:33;;;;;;;12.67;11.50;;;;;;;;;;4993245;28;20207;-57
2020/12/23 11:40:58;;;;;;;13.40;12.27;;;;;;;;;;4994204;28;20185;-57
2020/12/23 11:43:23;;;;;;;13.93;12.63;;;;;;;;;;4996607;28;20200;-57
2020/12/23 11:45:48;;;;;;;13.68;12.43;;;;;;;;;;4996087;28;20177;-57
2020/12/23 11:48:13;;;;;;;12.80;11.60;;;;;;;;;;4997506;28;20640;-57
2020/12/23 11:50:39;;;;;;;13.55;12.25;;;;;;;;;;5001608;28;20564;-57
2020/12/23 11:53:04;;;;;;;13.77;12.47;;;;;;;;;;5015094;28;20207;-57
2020/12/23 11:55:35;;;;;;;13.40;12.30;;;;;;;;;;4993914;28;20228;-57
2020/12/23 11:58:00;;;;;;;12.33;11.13;;;;;;;;;;4999085;28;20212;-57
2020/12/23 12:00:25;;;;;;;12.70;11.53;;;;;;;;;;5002535;28;21219;-57
2020/12/23 12:02:50;;;;;;;13.05;11.85;;;;;;;;;;5001944;28;20205;-57
2020/12/23 12:05:16;;;;;;;14.13;12.93;;;;;;;;;;5011480;28;20544;-57
2020/12/23 12:07:41;;;;;;;14.07;12.77;;;;;;;;;;4997497;28;20191;-56
2020/12/23 12:10:07;;;;;;;13.60;12.50;;;;;;;;;;5014333;28;20215;-57
2020/12/23 12:12:32;;;;;;;14.13;12.83;;;;;;;;;;5003505;28;20187;-57
2020/12/23 12:14:58;;;;;;;12.73;11.63;;;;;;;;;;5007575;28;20945;-56
2020/12/23 12:17:23;;;;;;;12.60;11.50;;;;;;;;;;5000407;28;20204;-57
2020/12/23 12:19:49;;;;;;;12.57;11.48;;;;;;;;;;5006592;28;20173;-56
2020/12/23 12:22:14;;;;;;;13.00;11.70;;;;;;;;;;5006519;28;20178;-57
2020/12/23 12:24:39;;;;;;;13.77;12.57;;;;;;;;;;5002863;28;20635;-57
2020/12/23 12:27:04;;;;;;;13.23;12.03;;;;;;;;;;5004775;28;20292;-57
2020/12/23 12:29:30;;;;;;;15.43;14.02;;;;;;;;;;5008129;28;20232;-57
2020/12/23 12:31:55;;;;;;;13.85;12.63;;;;;;;;;;5003583;28;20597;-57
2020/12/23 12:34:21;;;;;;;14.18;12.88;;;;;;;;;;5005391;28;20176;-57
2020/12/23 12:36:47;;;;;;;13.30;12.20;;;;;;;;;;5004751;28;20268;-56
2020/12/23 12:39:12;;;;;;;13.77;12.57;;;;;;;;;;4997283;28;20691;-56
2020/12/23 12:41:37;;;;;;;13.50;12.20;;;;;;;;;;4998063;28;20225;-56
2020/12/23 12:44:02;;;;;;;14.03;12.80;;;;;;;;;;5001362;28;20190;-56
2020/12/23 12:46:27;;;;;;;13.13;11.80;;;;;;;;;;5002611;28;20200;-56
2020/12/23 12:48:52;;;;;;;14.27;12.93;;;;;;;;;;4996361;28;20192;-56
2020/12/23 12:51:24;;;;;;;12.98;11.77;;;;;;;;;;5005743;28;20610;-56
2020/12/23 12:53:49;;;;;;;13.00;11.80;;;;;;;;;;5001104;28;20240;-55
2020/12/23 12:56:31;;;;;;;12.38;11.18;;;;;;;;;;5006810;28;20596;-55
2020/12/23 12:58:56;;;;;;;14.27;13.00;;;;;;;;;;4995585;28;20217;-55
2020/12/23 13:01:22;;;;;;;13.10;11.90;;;;;;;;;;4995248;28;20700;-55
2020/12/23 13:03:47;;;;;;;13.40;12.10;;;;;;;;;;5002436;28;20257;-56
2020/12/23 13:06:12;;;;;;;12.80;11.60;;;;;;;;;;5000403;28;20273;-55
2020/12/23 13:08:38;;;;;;;12.80;11.53;;;;;;;;;;5000238;28;20188;-55
2020/12/23 13:11:03;;;;;;;12.00;11.00;;;;;;;;;;4999589;28;20177;-56
2020/12/23 13:13:28;;;;;;;12.27;11.07;;;;;;;;;;4999733;28;20246;-56
2020/12/23 13:15:53;;;;;;;11.98;10.88;;;;;;;;;;5008583;28;20177;-56
2020/12/23 13:18:18;;;;;;;11.47;10.30;;;;;;;;;;4996798;28;20205;-56
2020/12/23 13:20:44;;;;;;;12.67;11.37;;;;;;;;;;5000772;28;20195;-56
2020/12/23 13:23:12;;;;;;;11.73;10.57;;;;;;;;;;5001967;28;20523;-56
2020/12/23 13:25:37;;;;;;;11.90;10.70;;;;;;;;;;5003612;28;20201;-55
2020/12/23 13:28:02;;;;;;;11.70;10.57;;;;;;;;;;5008621;28;20613;-55
2020/12/23 13:30:28;;;;;;;11.45;10.35;;;;;;;;;;5005499;28;20490;-58
2020/12/23 13:32:53;;;;;;;11.93;10.70;;;;;;;;;;4998604;28;20175;-55
2020/12/23 13:35:18;;;;;;;11.83;10.70;;;;;;;;;;4993317;28;20178;-56
2020/12/23 13:37:49;;;;;;;13.03;11.73;;;;;;;;;;5000211;28;20204;-56
2020/12/23 13:40:14;;;;;;;11.40;10.40;;;;;;;;;;4995313;28;20639;-56
2020/12/23 13:42:40;;;;;;;11.75;10.55;;;;;;;;;;4997317;28;21123;-56
2020/12/23 13:45:05;;;;;;;12.40;11.20;;;;;;;;;;4999812;28;20652;-56
2020/12/23 13:47:31;;;;;;;12.47;11.03;;;;;;;;;;4997742;28;20605;-55
2020/12/23 13:49:56;;;;;;;12.43;11.23;;;;;;;;;;5000243;28;20226;-56
2020/12/23 13:52:24;;;;;;;14.25;12.55;;;;;;;;;;5006650;28;20175;-56
2020/12/23 13:54:49;;;;;;;13.10;11.77;;;;;;;;;;4999255;28;20188;-55
2020/12/23 13:57:14;;;;;;;13.30;11.40;;;;;;;;;;4997959;28;20656;-56
2020/12/23 13:59:39;;;;;;;12.20;11.00;;;;;;;;;;5002493;28;20203;-55
2020/12/23 14:02:05;;;;;;;12.35;11.15;;;;;;;;;;5009357;28;20210;-56
2020/12/23 14:04:31;;;;;;;13.13;11.80;;;;;;;;;;5007042;28;20181;-56
2020/12/23 14:06:56;;;;;;;13.87;11.97;;;;;;;;;;4995722;28;21182;-56
2020/12/23 14:09:21;;;;;;;12.73;11.53;;;;;;;;;;4999377;28;20187;-56
2020/12/23 14:11:47;;;;;;;13.77;12.43;;;;;;;;;;4998519;28;20180;-56
2020/12/23 14:14:12;;;;;;;12.63;11.40;;;;;;;;;;4999437;28;20169;-56
2020/12/23 14:16:37;;;;;;;12.90;11.70;;;;;;;;;;4998365;28;20225;-56